Time;durP1;ratioP1;P1;durP2;ratioP2;P2;SDS_P1;SDS_P2;PMS_P1;PMS_P2;Temp;Humidity;BMP_temperature;BMP_pressure;BME280_temperature;BME280_humidity;BME280_pressure;Samples;Min_cycle;Max_cycle;Signal;HPM_P1;HPM_P2
2023/01/01 00:02:15;;;;;;;10.67;7.37;;;;;;;11.73;76.25;99032.08;2189961;81;21396;-83
2023/01/01 00:05:15;;;;;;;13.60;7.47;;;;;;;11.73;75.99;99029.89;2189927;81;20964;-82
2023/01/01 00:08:16;;;;;;;9.57;7.70;;;;;;;11.76;75.97;99021.65;2189852;81;20933;-83
2023/01/01 00:11:16;;;;;;;12.83;8.60;;;;;;;11.77;75.57;99026.45;2189613;81;21436;-82
2023/01/01 00:14:16;;;;;;;9.23;7.00;;;;;;;11.79;74.61;99021.71;2190100;81;21414;-83
2023/01/01 00:17:17;;;;;;;9.18;7.30;;;;;;;11.90;74.92;99030.97;2190271;81;21000;-82
2023/01/01 00:20:17;;;;;;;9.90;7.23;;;;;;;11.94;74.11;99034.49;2190283;81;20983;-83
2023/01/01 00:23:18;;;;;;;11.00;7.73;;;;;;;12.00;73.57;99031.50;2190629;81;20960;-82
2023/01/01 00:26:18;;;;;;;10.30;7.50;;;;;;;12.03;73.00;99031.52;2190695;81;20975;-82
2023/01/01 00:29:18;;;;;;;10.03;7.23;;;;;;;12.06;73.22;99042.02;2190989;81;20987;-82
2023/01/01 00:32:19;;;;;;;12.13;7.60;;;;;;;12.07;73.30;99037.23;2191252;81;21276;-82
2023/01/01 00:35:19;;;;;;;10.17;7.53;;;;;;;12.07;72.86;99038.97;2190930;81;20932;-81
2023/01/01 00:38:20;;;;;;;9.25;7.25;;;;;;;12.05;73.06;99032.41;2190349;81;20992;-81
2023/01/01 00:41:20;;;;;;;12.82;8.08;;;;;;;12.04;73.52;99031.97;2183180;81;21384;-81
2023/01/01 00:44:20;;;;;;;12.80;8.70;;;;;;;12.01;72.93;99035.87;2173466;81;20949;-81
2023/01/01 00:47:21;;;;;;;12.55;9.03;;;;;;;12.00;73.38;99035.86;2173916;81;21004;-82
2023/01/01 00:50:21;;;;;;;12.43;8.13;;;;;;;11.94;73.66;99037.98;2173246;81;21419;-82
2023/01/01 00:53:22;;;;;;;13.90;8.83;;;;;;;11.88;73.76;99036.62;2173762;82;20964;-81
2023/01/01 00:56:22;;;;;;;12.60;9.10;;;;;;;11.86;73.95;99046.62;2173822;81;20969;-82
2023/01/01 00:59:22;;;;;;;12.98;8.55;;;;;;;11.80;73.97;99052.66;2173628;81;20984;-82
2023/01/01 01:02:23;;;;;;;14.83;9.47;;;;;;;11.78;73.69;99050.47;2173608;81;21014;-82
2023/01/01 01:05:23;;;;;;;11.22;8.10;;;;;;;11.80;73.45;99046.13;2173717;81;20929;-81
2023/01/01 01:08:24;;;;;;;12.77;8.70;;;;;;;11.85;73.22;99047.05;2173787;81;21005;-81
2023/01/01 01:11:24;;;;;;;13.57;9.53;;;;;;;11.91;73.19;99041.88;2173469;81;21039;-82
2023/01/01 01:14:25;;;;;;;13.13;9.47;;;;;;;11.96;72.83;99042.80;2173669;81;20968;-82
2023/01/01 01:17:25;;;;;;;13.97;8.83;;;;;;;12.01;72.22;99037.61;2173972;81;21002;-81
2023/01/01 01:20:25;;;;;;;12.47;8.95;;;;;;;12.09;71.94;99046.40;2173849;81;20921;-81
2023/01/01 01:23:26;;;;;;;14.35;8.58;;;;;;;12.11;72.15;99049.91;2173694;81;21001;-81
2023/01/01 01:26:26;;;;;;;13.30;9.00;;;;;;;12.09;71.90;99058.17;2173764;81;20976;-81
2023/01/01 01:29:26;;;;;;;11.03;8.00;;;;;;;12.08;71.52;99051.19;2173601;81;20956;-81
2023/01/01 01:32:27;;;;;;;14.35;9.15;;;;;;;12.10;71.85;99054.27;2173679;81;21388;-81
2023/01/01 01:35:28;;;;;;;12.63;9.05;;;;;;;12.12;71.47;99056.47;2173835;81;20960;-82
2023/01/01 01:38:28;;;;;;;15.20;9.87;;;;;;;12.11;71.07;99058.64;2173743;81;21044;-80
2023/01/01 01:41:28;;;;;;;13.48;9.60;;;;;;;12.13;71.32;99054.30;2180283;81;21465;-82
2023/01/01 01:44:28;;;;;;;13.15;9.30;;;;;;;12.15;71.41;99042.56;2190347;81;20936;-82
2023/01/01 01:47:29;;;;;;;14.05;10.10;;;;;;;12.16;71.39;99045.63;2189894;81;20980;-82
2023/01/01 01:50:29;;;;;;;14.47;10.53;;;;;;;12.19;70.97;99050.89;2190108;81;21032;-82
2023/01/01 01:53:30;;;;;;;15.65;10.72;;;;;;;12.27;70.54;99047.90;2189901;81;20944;-82
2023/01/01 01:56:30;;;;;;;15.72;10.58;;;;;;;12.36;69.43;99048.41;2190460;81;20985;-82
2023/01/01 01:59:30;;;;;;;15.70;9.78;;;;;;;12.40;70.04;99034.05;2190177;81;20996;-82
2023/01/01 02:02:31;;;;;;;13.93;9.70;;;;;;;12.37;69.51;99030.09;2190521;81;21024;-83
2023/01/01 02:05:31;;;;;;;13.60;10.05;;;;;;;12.37;70.03;99023.55;2190296;81;20999;-82
2023/01/01 02:08:32;;;;;;;15.78;9.88;;;;;;;12.37;69.25;99023.55;2190167;81;21009;-82
2023/01/01 02:11:32;;;;;;;13.75;9.40;;;;;;;12.40;69.00;99003.06;2190055;81;21075;-82
2023/01/01 02:14:32;;;;;;;13.93;9.78;;;;;;;12.48;68.70;99023.63;2190425;81;20948;-82
2023/01/01 02:17:33;;;;;;;14.78;10.08;;;;;;;12.53;68.33;99027.59;2190347;81;21379;-82
2023/01/01 02:20:33;;;;;;;17.17;10.68;;;;;;;12.57;68.63;99032.86;2190325;81;20944;-82
2023/01/01 02:23:34;;;;;;;15.85;11.10;;;;;;;12.62;68.71;99031.58;2190498;81;20948;-81
2023/01/01 02:26:37;;;;;;;14.98;10.45;;;;;;;12.65;68.53;99034.22;2190608;81;20992;-83
2023/01/01 02:29:38;;;;;;;18.20;11.50;;;;;;;12.67;68.18;99032.05;2190693;81;20963;-82
2023/01/01 02:32:38;;;;;;;16.12;11.60;;;;;;;12.71;67.82;99029.89;2190300;81;21005;-82
2023/01/01 02:35:38;;;;;;;18.23;11.75;;;;;;;12.71;68.28;99032.52;2190612;81;20987;-82
2023/01/01 02:38:40;;;;;;;16.93;11.40;;;;;;;12.68;68.11;99032.49;2190528;81;21023;-83
2023/01/01 02:41:39;;;;;;;17.12;11.45;;;;;;;12.64;68.33;99027.23;2190252;81;21055;-82
2023/01/01 02:44:39;;;;;;;16.45;10.88;;;;;;;12.60;68.69;99033.31;2190512;81;20975;-82
2023/01/01 02:47:40;;;;;;;18.70;11.83;;;;;;;12.51;68.68;99031.50;2190509;81;21336;-82
2023/01/01 02:50:40;;;;;;;15.93;11.47;;;;;;;12.47;69.03;99037.58;2190681;81;20999;-81
2023/01/01 02:53:41;;;;;;;18.00;11.60;;;;;;;12.38;68.99;99034.47;2189995;81;20965;-81
2023/01/01 02:56:41;;;;;;;18.12;11.15;;;;;;;12.30;69.23;99047.05;2190609;81;21299;-82
2023/01/01 03:03:00;;;;;;;16.45;11.48;;;;;;;12.11;69.66;99031.16;2190296;81;21279;-82
2023/01/01 03:09:19;;;;;;;16.12;12.00;;;;;;;12.00;70.07;99040.66;2190301;81;20944;-82
2023/01/01 03:12:19;;;;;;;15.10;11.45;;;;;;;11.92;70.18;99040.14;2190253;81;21040;-82
2023/01/01 03:15:20;;;;;;;19.10;11.63;;;;;;;11.86;70.36;99032.23;2190543;81;20948;-82
2023/01/01 03:18:20;;;;;;;15.95;10.95;;;;;;;11.81;70.71;99033.50;2190441;81;21356;-82
2023/01/01 03:21:21;;;;;;;15.18;10.35;;;;;;;11.73;70.91;99036.00;2190770;81;20889;-81
2023/01/01 03:24:21;;;;;;;14.85;10.10;;;;;;;11.68;71.13;99039.43;2190410;81;20984;-81
2023/01/01 03:27:21;;;;;;;18.00;11.83;;;;;;;11.61;71.21;99043.72;2190213;81;21323;-81
2023/01/01 03:30:22;;;;;;;17.27;10.78;;;;;;;11.55;71.43;99049.31;2190199;81;20969;-83
2023/01/01 03:33:22;;;;;;;16.77;10.82;;;;;;;11.51;71.49;99052.32;2190049;81;20967;-81
2023/01/01 03:36:23;;;;;;;15.32;10.32;;;;;;;11.47;71.27;99054.02;2190015;81;20992;-81
2023/01/01 03:39:23;;;;;;;16.90;10.32;;;;;;;11.46;71.48;99056.19;2189792;81;20988;-81
2023/01/01 03:42:23;;;;;;;16.70;9.85;;;;;;;11.46;71.36;99069.26;2180425;81;21400;-81
2023/01/01 03:45:24;;;;;;;16.70;10.23;;;;;;;11.48;71.20;99063.62;2173375;82;21014;-82
2023/01/01 03:48:24;;;;;;;14.63;10.00;;;;;;;11.53;71.05;99074.56;2173510;81;20996;-82
2023/01/01 03:51:25;;;;;;;13.48;8.95;;;;;;;11.62;70.76;99078.59;2173131;81;20930;-80
2023/01/01 03:54:25;;;;;;;13.15;9.03;;;;;;;11.68;70.41;99085.19;2173565;81;20964;-81
2023/01/01 03:57:25;;;;;;;13.43;8.63;;;;;;;11.71;70.51;99086.53;2173449;81;20995;-81
2023/01/01 04:00:27;;;;;;;13.10;8.68;;;;;;;11.71;70.40;99081.30;2173348;81;20976;-81
2023/01/01 04:03:26;;;;;;;10.73;8.40;;;;;;;11.73;70.16;99086.12;2173666;82;20998;-81
2023/01/01 04:06:27;;;;;;;11.50;8.48;;;;;;;11.79;69.82;99077.06;2173461;81;20922;-81
2023/01/01 04:09:27;;;;;;;15.78;8.28;;;;;;;11.82;69.49;99082.33;2173494;82;21000;-81
2023/01/01 04:12:27;;;;;;;11.00;7.90;;;;;;;11.89;69.29;99083.27;2173345;81;21029;-82
2023/01/01 04:15:28;;;;;;;13.65;8.53;;;;;;;11.88;69.02;99081.52;2173375;82;20988;-81
2023/01/01 04:18:28;;;;;;;13.18;8.98;;;;;;;11.89;69.25;99078.91;2173544;81;20980;-82
2023/01/01 04:21:29;;;;;;;12.03;7.60;;;;;;;11.86;69.35;99080.19;2173570;81;20968;-82
2023/01/01 04:24:29;;;;;;;10.50;8.03;;;;;;;11.84;69.45;99080.61;2173815;81;21308;-83
2023/01/01 04:27:29;;;;;;;12.75;8.05;;;;;;;11.80;69.22;99082.74;2173470;81;21016;-83
2023/01/01 04:30:30;;;;;;;10.80;8.27;;;;;;;11.78;69.16;99077.50;2173624;81;21000;-82
2023/01/01 04:33:31;;;;;;;11.93;7.85;;;;;;;11.80;69.27;99087.97;2173609;81;21454;-83
2023/01/01 04:36:31;;;;;;;10.95;8.00;;;;;;;11.82;69.20;99086.25;2173797;82;20941;-82
2023/01/01 04:42:48;;;;;;;14.83;8.85;;;;;;;12.03;68.70;99074.70;2298203;77;22668;-82
2023/01/01 04:45:52;;;;;;;15.35;9.43;;;;;;;12.06;68.08;99078.65;2226116;78;21307;-83
2023/01/01 04:48:52;;;;;;;11.18;8.35;;;;;;;12.11;68.47;99086.11;2225696;80;21013;-83
2023/01/01 04:51:52;;;;;;;13.93;9.18;;;;;;;12.17;67.80;99080.52;2225808;80;21425;-83
2023/01/01 04:54:53;;;;;;;12.20;8.80;;;;;;;12.21;68.16;99083.18;2226091;80;20911;-83
2023/01/01 04:57:53;;;;;;;12.95;8.53;;;;;;;12.23;67.03;99090.61;2225547;80;21370;-84
2023/01/01 05:00:54;;;;;;;12.05;9.08;;;;;;;12.25;67.50;99081.47;2225628;80;20983;-83
2023/01/01 05:03:54;;;;;;;12.50;9.73;;;;;;;12.22;67.41;99091.91;2225580;80;20986;-83
2023/01/01 05:06:55;;;;;;;12.07;8.73;;;;;;;12.17;67.79;99093.17;2225655;80;20939;-82
2023/01/01 05:09:55;;;;;;;13.55;10.03;;;;;;;12.13;67.60;99095.28;2225633;80;20926;-82
2023/01/01 05:12:58;;;;;;;14.35;10.08;;;;;;;12.07;67.98;99102.64;2225821;80;21014;-83
2023/01/01 05:15:58;;;;;;;15.05;9.60;;;;;;;12.05;67.85;99100.45;2225511;80;20923;-82
2023/01/01 05:18:58;;;;;;;13.28;9.25;;;;;;;12.00;68.00;99098.21;2225529;80;21343;-83
2023/01/01 05:21:59;;;;;;;14.13;10.10;;;;;;;11.96;68.04;99102.09;2225595;80;20966;-83
2023/01/01 05:25:01;;;;;;;14.70;9.75;;;;;;;11.92;68.53;99106.41;2225724;80;20927;-82
2023/01/01 05:28:01;;;;;;;17.57;9.70;;;;;;;11.86;68.52;99102.42;2225321;80;20959;-81
2023/01/01 05:31:04;;;;;;;17.23;9.65;;;;;;;11.82;68.76;99111.09;2225452;80;20926;-81
2023/01/01 05:34:04;;;;;;;11.05;8.95;;;;;;;11.76;68.92;99110.56;2225239;80;20911;-81
2023/01/01 05:37:05;;;;;;;13.40;9.40;;;;;;;11.75;69.06;99114.47;2225509;80;20923;-81
2023/01/01 05:40:05;;;;;;;14.77;8.00;;;;;;;11.73;69.05;99112.27;2225247;79;20935;-80
2023/01/01 05:43:06;;;;;;;13.33;9.10;;;;;;;11.73;69.02;99114.88;2225168;80;20939;-81
2023/01/01 05:46:06;;;;;;;14.85;8.90;;;;;;;11.75;69.20;99114.05;2225044;80;20960;-79
2023/01/01 05:49:06;;;;;;;12.78;8.93;;;;;;;11.74;68.95;99121.44;2225150;80;21369;-81
2023/01/01 05:52:07;;;;;;;17.07;9.40;;;;;;;11.73;68.97;99121.42;2225009;80;20938;-80
2023/01/01 05:55:07;;;;;;;9.90;8.30;;;;;;;11.71;69.13;99125.33;2224918;80;20888;-83
2023/01/01 05:58:08;;;;;;;13.57;9.07;;;;;;;11.68;68.87;99130.95;2224725;80;20919;-84
2023/01/01 06:01:08;;;;;;;10.80;8.37;;;;;;;11.64;69.14;99127.42;2224702;80;20955;-83
2023/01/01 06:04:08;;;;;;;12.07;8.35;;;;;;;11.60;69.35;99127.37;2224508;80;20951;-83
2023/01/01 06:07:09;;;;;;;13.08;9.18;;;;;;;11.54;69.58;99130.78;2224720;80;20924;-83
2023/01/01 06:10:09;;;;;;;13.00;9.20;;;;;;;11.46;69.69;99125.46;2224733;80;21369;-82
2023/01/01 06:13:10;;;;;;;12.87;9.03;;;;;;;11.41;69.78;99138.02;2224369;80;20956;-83
2023/01/01 06:16:10;;;;;;;16.23;11.00;;;;;;;11.34;69.94;99142.72;2224488;80;20984;-82
2023/01/01 06:19:10;;;;;;;14.87;10.03;;;;;;;11.24;70.15;99146.91;2224054;80;20907;-82
2023/01/01 06:22:11;;;;;;;15.87;9.00;;;;;;;11.08;70.59;99152.77;2224166;80;20963;-81
2023/01/01 06:25:11;;;;;;;12.77;8.93;;;;;;;11.08;70.59;99152.77;2224533;80;20896;-83
2023/01/01 06:28:12;;;;;;;14.20;8.90;;;;;;;11.02;70.70;99157.91;2224306;80;21346;-81
2023/01/01 06:31:12;;;;;;;11.93;8.80;;;;;;;10.96;70.87;99157.81;2224495;80;20931;-82
2023/01/01 06:34:13;;;;;;;11.90;8.30;;;;;;;10.92;71.02;99154.70;2224655;80;20919;-81
2023/01/01 06:37:13;;;;;;;13.33;7.67;;;;;;;10.86;71.01;99151.57;2224238;80;21421;-82
2023/01/01 06:40:13;;;;;;;13.67;8.37;;;;;;;10.88;70.91;99150.29;2224278;80;20911;-81
2023/01/01 06:43:14;;;;;;;11.00;7.87;;;;;;;10.94;70.75;99155.61;2224196;79;20963;-82
2023/01/01 06:46:14;;;;;;;12.17;8.43;;;;;;;10.97;70.51;99161.75;2224281;80;20971;-82
2023/01/01 06:49:15;;;;;;;11.23;8.53;;;;;;;10.99;70.47;99161.78;2224203;80;20931;-81
2023/01/01 06:52:15;;;;;;;9.80;7.20;;;;;;;11.02;70.34;99168.36;2224417;80;20951;-82
2023/01/01 06:55:15;;;;;;;14.33;8.40;;;;;;;11.05;69.86;99167.09;2224239;80;21311;-82
2023/01/01 06:58:16;;;;;;;12.10;8.07;;;;;;;11.09;69.95;99174.12;2224418;80;20919;-84
2023/01/01 07:01:16;;;;;;;9.57;7.17;;;;;;;11.13;69.51;99179.84;2224537;80;20963;-82
2023/01/01 07:04:16;;;;;;;11.67;8.00;;;;;;;11.15;69.45;99191.20;2224346;80;20968;-82
2023/01/01 07:07:17;;;;;;;9.60;7.47;;;;;;;11.20;69.56;99193.45;2224438;80;20927;-82
2023/01/01 07:10:17;;;;;;;10.30;7.33;;;;;;;11.21;69.36;99196.52;2224966;80;21331;-82
2023/01/01 07:13:18;;;;;;;11.23;7.33;;;;;;;11.21;69.41;99197.81;2224159;80;20975;-82
2023/01/01 07:16:18;;;;;;;10.27;7.47;;;;;;;11.22;69.33;99199.58;2224559;80;20931;-83
2023/01/01 07:19:18;;;;;;;11.30;7.53;;;;;;;11.25;69.23;99203.54;2224648;80;21260;-82
2023/01/01 07:22:19;;;;;;;10.60;7.30;;;;;;;11.31;68.97;99207.58;2224250;80;20963;-82
2023/01/01 07:25:19;;;;;;;10.77;8.00;;;;;;;11.35;69.01;99205.89;2224695;80;20931;-82
2023/01/01 07:28:20;;;;;;;10.57;8.00;;;;;;;11.38;68.86;99208.55;2224118;80;20895;-81
2023/01/01 07:31:20;;;;;;;11.03;7.27;;;;;;;11.38;68.68;99217.70;2224608;80;20884;-82
2023/01/01 07:34:22;;;;;;;10.35;7.75;;;;;;;11.38;68.68;99216.39;2224787;80;20880;-82
2023/01/01 07:37:25;;;;;;;11.73;8.50;;;;;;;11.39;68.66;99214.23;2224571;80;21260;-82
2023/01/01 07:40:21;;;;;;;12.00;8.00;;;;;;;11.41;68.33;99228.20;2224689;80;20947;-80
2023/01/01 07:43:22;;;;;;;12.30;8.40;;;;;;;11.44;68.27;99227.81;2224111;79;20994;-84
2023/01/01 07:46:22;;;;;;;10.10;7.20;;;;;;;11.47;68.31;99233.08;2224507;80;21349;-83
2023/01/01 07:49:22;;;;;;;11.15;7.85;;;;;;;11.48;68.07;99234.84;2224260;80;20946;-82
2023/01/01 07:52:23;;;;;;;8.45;7.33;;;;;;;11.48;68.31;99229.61;2224463;80;20942;-83
2023/01/01 07:55:23;;;;;;;12.10;8.23;;;;;;;11.48;68.23;99242.69;2224293;80;20974;-82
2023/01/01 07:58:24;;;;;;;10.47;7.50;;;;;;;11.46;68.56;99245.70;2224265;80;20899;-82
2023/01/01 08:01:25;;;;;;;11.60;7.77;;;;;;;11.47;68.51;99255.30;2224388;80;20962;-82
2023/01/01 08:04:28;;;;;;;11.28;7.47;;;;;;;11.45;68.69;99249.17;2224399;80;20942;-82
2023/01/01 08:07:28;;;;;;;10.32;7.22;;;;;;;11.44;68.69;99248.73;2224130;80;21051;-83
2023/01/01 08:10:29;;;;;;;10.93;7.50;;;;;;;11.42;68.81;99256.09;2224053;80;20927;-83
2023/01/01 08:13:29;;;;;;;9.20;6.70;;;;;;;11.41;68.95;99260.44;2223970;80;20990;-83
2023/01/01 08:16:29;;;;;;;12.93;7.65;;;;;;;11.41;69.06;99262.17;2223881;80;20939;-83
2023/01/01 08:19:30;;;;;;;10.80;6.72;;;;;;;11.41;69.02;99253.91;2224223;80;20931;-82
2023/01/01 08:22:30;;;;;;;8.43;6.90;;;;;;;11.38;69.00;99255.59;2224318;80;20939;-82
2023/01/01 08:25:31;;;;;;;9.50;7.10;;;;;;;11.37;69.17;99257.76;2224101;80;20970;-82
2023/01/01 08:28:31;;;;;;;10.90;7.20;;;;;;;11.36;69.24;99253.39;2223682;80;20970;-82
2023/01/01 08:31:32;;;;;;;13.37;7.00;;;;;;;11.35;69.37;99245.09;2224101;80;20951;-82
2023/01/01 08:34:32;;;;;;;8.00;6.73;;;;;;;11.33;69.37;99260.75;2223893;80;21311;-82
2023/01/01 08:37:32;;;;;;;8.87;6.80;;;;;;;11.31;69.49;99267.69;2223982;80;20947;-82
2023/01/01 08:40:33;;;;;;;9.90;6.97;;;;;;;11.29;69.61;99272.02;2224236;80;20960;-82
2023/01/01 08:43:33;;;;;;;8.53;6.97;;;;;;;11.27;69.72;99270.20;2250278;79;21023;-82
2023/01/01 08:46:34;;;;;;;11.30;7.08;;;;;;;11.25;69.85;99278.02;2251965;79;20963;-81
2023/01/01 08:49:34;;;;;;;10.15;6.90;;;;;;;11.27;69.93;99275.03;2252012;79;20928;-82
2023/01/01 08:52:34;;;;;;;10.55;7.42;;;;;;;11.28;69.98;99283.33;2252000;79;20924;-82
2023/01/01 08:55:35;;;;;;;9.30;7.03;;;;;;;11.30;70.05;99285.53;2252437;79;20921;-82
2023/01/01 08:58:35;;;;;;;10.15;7.12;;;;;;;11.30;69.95;99285.53;2251948;79;20976;-82
2023/01/01 09:01:36;;;;;;;11.00;7.33;;;;;;;11.33;70.16;99288.62;2251998;79;20964;-83
2023/01/01 09:04:36;;;;;;;9.45;7.70;;;;;;;11.35;70.18;99290.84;2252007;79;21312;-83
2023/01/01 09:07:36;;;;;;;10.93;7.37;;;;;;;11.36;70.14;99296.09;2252266;79;20925;-82
2023/01/01 09:10:37;;;;;;;13.80;7.37;;;;;;;11.42;70.09;99294.88;2253229;79;20901;-83
2023/01/01 09:13:37;;;;;;;11.65;7.15;;;;;;;11.47;70.00;99294.52;2252773;79;21383;-82
2023/01/01 09:16:38;;;;;;;9.88;6.75;;;;;;;11.53;69.95;99291.55;2254112;79;20901;-82
2023/01/01 09:19:38;;;;;;;12.55;7.42;;;;;;;11.62;69.84;99290.38;2254189;79;20999;-82
2023/01/01 09:22:38;;;;;;;9.78;7.03;;;;;;;11.75;69.74;99296.23;2254178;79;20940;-82
2023/01/01 09:25:39;;;;;;;9.80;7.37;;;;;;;11.89;69.42;99294.72;2253835;79;20971;-82
2023/01/01 09:28:39;;;;;;;9.78;7.58;;;;;;;12.04;69.35;99287.08;2253784;79;20935;-82
2023/01/01 09:31:40;;;;;;;8.95;6.83;;;;;;;12.18;69.05;99279.86;2254145;79;20912;-81
2023/01/01 09:34:40;;;;;;;10.85;7.40;;;;;;;12.35;68.80;99284.86;2253846;79;20952;-82
2023/01/01 09:37:40;;;;;;;12.73;9.00;;;;;;;12.50;67.51;99276.30;2253902;79;20952;-82
2023/01/01 09:40:41;;;;;;;10.55;7.72;;;;;;;12.63;67.93;99273.83;2253613;79;20959;-84
2023/01/01 09:43:41;;;;;;;9.23;7.22;;;;;;;12.74;67.60;99264.34;2227718;79;20967;-83
2023/01/01 09:46:42;;;;;;;9.80;6.83;;;;;;;12.86;67.22;99266.63;2225140;80;20903;-82
2023/01/01 09:49:44;;;;;;;10.95;7.53;;;;;;;13.04;66.95;99281.24;2200558;80;20938;-83
2023/01/01 09:52:44;;;;;;;12.85;7.15;;;;;;;13.15;66.87;99276.97;2225240;80;20923;-83
2023/01/01 09:55:45;;;;;;;10.88;7.70;;;;;;;13.28;66.08;99270.12;2224229;80;21042;-82
2023/01/01 09:58:45;;;;;;;9.58;7.83;;;;;;;13.43;65.67;99267.61;2224322;80;20986;-83
2023/01/01 10:01:46;;;;;;;11.30;8.20;;;;;;;13.61;64.83;99261.61;2224494;80;21320;-83
2023/01/01 10:04:46;;;;;;;12.15;7.50;;;;;;;13.84;63.79;99264.36;2224773;80;21295;-83
2023/01/01 10:07:46;;;;;;;11.45;8.13;;;;;;;14.10;63.86;99257.96;2224895;80;20932;-83
2023/01/01 10:10:48;;;;;;;12.25;8.78;;;;;;;14.33;64.22;99257.61;2224745;80;20927;-83
2023/01/01 10:13:47;;;;;;;11.28;8.90;;;;;;;14.54;62.95;99256.39;2224864;80;21295;-83
2023/01/01 10:16:47;;;;;;;9.50;7.62;;;;;;;14.76;62.77;99245.95;2225104;80;20935;-83
2023/01/01 10:19:48;;;;;;;9.30;7.65;;;;;;;14.92;62.21;99251.23;2224809;80;20994;-82
2023/01/01 10:22:48;;;;;;;9.68;8.00;;;;;;;15.02;60.87;99250.80;2224588;80;21355;-83
2023/01/01 10:25:49;;;;;;;9.15;7.03;;;;;;;15.15;62.34;99249.05;2224706;80;20903;-81
2023/01/01 10:28:49;;;;;;;8.93;7.28;;;;;;;15.28;62.03;99236.33;2224356;80;21311;-81
2023/01/01 10:31:49;;;;;;;15.03;9.15;;;;;;;15.37;60.85;99250.78;2224514;80;20970;-81
2023/01/01 10:34:50;;;;;;;10.30;7.15;;;;;;;15.44;61.23;99241.13;2224373;80;20975;-81
2023/01/01 10:37:51;;;;;;;9.70;7.15;;;;;;;15.55;60.38;99236.29;2224557;80;20930;-81
2023/01/01 10:40:51;;;;;;;11.70;7.95;;;;;;;15.59;60.21;99235.88;2223833;80;20951;-81
2023/01/01 10:43:51;;;;;;;8.75;6.95;;;;;;;15.64;60.47;99232.83;2233893;78;21003;-81
2023/01/01 10:46:51;;;;;;;7.87;6.87;;;;;;;15.68;59.81;99226.68;2235409;80;20958;-81
2023/01/01 10:49:52;;;;;;;8.08;6.15;;;;;;;15.67;59.68;99242.03;2235632;80;21330;-82
2023/01/01 10:52:52;;;;;;;9.53;6.65;;;;;;;15.65;60.22;99238.53;2235718;80;21002;-82
2023/01/01 10:55:53;;;;;;;7.72;6.45;;;;;;;15.64;60.37;99234.15;2235763;80;21274;-82
2023/01/01 10:58:57;;;;;;;10.63;6.60;;;;;;;15.58;60.48;99238.08;2235572;80;20943;-81
2023/01/01 11:01:56;;;;;;;8.30;6.75;;;;;;;15.48;60.53;99232.36;2223033;80;20973;-82
2023/01/01 11:04:57;;;;;;;8.95;6.83;;;;;;;15.40;60.73;99231.05;2228714;80;20915;-81
2023/01/01 11:07:57;;;;;;;7.95;6.92;;;;;;;15.36;60.99;99225.80;2228538;80;20954;-82
2023/01/01 11:10:58;;;;;;;7.87;6.42;;;;;;;15.37;61.13;99226.23;2228555;80;20935;-81
2023/01/01 11:13:58;;;;;;;9.65;6.17;;;;;;;15.33;60.96;99213.97;2228692;80;20989;-82
2023/01/01 11:16:59;;;;;;;8.25;6.53;;;;;;;15.26;60.83;99223.63;2228650;80;20953;-81
2023/01/01 11:19:59;;;;;;;7.22;6.30;;;;;;;15.20;61.33;99219.24;2228891;80;20931;-81
2023/01/01 11:22:59;;;;;;;8.50;6.83;;;;;;;15.16;61.42;99215.30;2228703;80;21337;-82
2023/01/01 11:26:00;;;;;;;10.00;6.42;;;;;;;15.17;61.23;99221.88;2228864;80;20911;-82
2023/01/01 11:29:00;;;;;;;8.95;6.17;;;;;;;15.16;61.30;99213.55;2228779;80;20969;-82
2023/01/01 11:32:01;;;;;;;8.10;6.05;;;;;;;15.14;60.86;99211.36;2228612;80;20927;-81
2023/01/01 11:35:01;;;;;;;9.83;6.37;;;;;;;15.10;60.13;99204.34;2228587;80;20999;-83
2023/01/01 11:38:01;;;;;;;9.80;6.47;;;;;;;15.07;60.78;99208.73;2228876;80;20915;-82
2023/01/01 11:41:02;;;;;;;10.10;7.08;;;;;;;15.06;60.21;99203.91;2228650;80;20934;-82
2023/01/01 11:44:02;;;;;;;8.63;5.87;;;;;;;15.02;60.50;99200.85;2209635;78;20990;-82
2023/01/01 11:47:03;;;;;;;7.92;6.22;;;;;;;15.03;60.92;99204.35;2207403;81;20975;-81
2023/01/01 11:50:04;;;;;;;10.20;6.42;;;;;;;15.03;60.88;99202.60;2207380;81;20944;-83
2023/01/01 11:53:04;;;;;;;10.05;6.30;;;;;;;15.05;60.51;99215.75;2207639;81;20900;-82
2023/01/01 11:56:05;;;;;;;8.53;5.95;;;;;;;15.01;60.20;99225.39;2207773;81;20958;-83
2023/01/01 11:59:05;;;;;;;8.78;5.97;;;;;;;15.01;60.08;99216.19;2207288;81;20955;-84
2023/01/01 12:02:05;;;;;;;9.10;6.37;;;;;;;14.99;60.82;99215.31;2207554;81;20943;-82
2023/01/01 12:05:06;;;;;;;9.00;6.55;;;;;;;14.97;60.90;99221.88;2207363;81;20979;-82
2023/01/01 12:08:06;;;;;;;7.15;6.20;;;;;;;14.97;60.84;99215.75;2207186;81;20948;-82
2023/01/01 12:11:07;;;;;;;11.03;6.53;;;;;;;14.97;61.08;99204.80;2207343;81;20912;-83
2023/01/01 12:14:07;;;;;;;7.12;5.45;;;;;;;14.96;60.59;99208.30;2207067;81;21367;-82
2023/01/01 12:17:07;;;;;;;8.93;6.62;;;;;;;14.92;60.95;99202.61;2207309;81;20923;-82
2023/01/01 12:20:08;;;;;;;8.08;6.20;;;;;;;14.86;61.16;99199.98;2207094;81;20928;-82
2023/01/01 12:23:08;;;;;;;7.90;6.15;;;;;;;14.81;60.96;99191.22;2207210;81;20940;-82
2023/01/01 12:26:09;;;;;;;10.00;6.60;;;;;;;14.78;61.17;99184.64;2207267;81;20988;-82
2023/01/01 12:29:09;;;;;;;8.25;6.60;;;;;;;14.76;61.34;99186.83;2206976;81;21380;-82
2023/01/01 12:32:09;;;;;;;7.87;6.30;;;;;;;14.75;61.54;99187.70;2207399;81;20903;-82
2023/01/01 12:35:10;;;;;;;7.67;5.75;;;;;;;14.74;61.59;99189.45;2206777;81;20955;-80
2023/01/01 12:38:10;;;;;;;10.90;7.50;;;;;;;14.75;61.62;99189.02;2206776;81;20956;-82
2023/01/01 12:41:11;;;;;;;7.80;6.37;;;;;;;14.76;61.63;99192.97;2206721;81;20916;-81
2023/01/01 12:44:11;;;;;;;9.65;5.87;;;;;;;14.76;61.66;99195.59;2206333;80;21683;-82
2023/01/01 12:47:12;;;;;;;8.25;6.17;;;;;;;14.76;61.33;99198.22;2206600;81;20970;-81
2023/01/01 12:50:12;;;;;;;9.68;6.42;;;;;;;14.76;61.03;99194.28;2206896;81;20914;-82
2023/01/01 12:53:13;;;;;;;7.70;5.95;;;;;;;14.76;61.05;99198.22;2207119;81;20935;-81
2023/01/01 12:56:15;;;;;;;9.33;6.30;;;;;;;14.76;60.73;99203.91;2206853;81;20935;-81
2023/01/01 12:59:13;;;;;;;11.18;5.67;;;;;;;14.73;60.69;99208.69;2207161;81;20988;-81
2023/01/01 13:02:14;;;;;;;8.25;6.65;;;;;;;14.72;60.87;99209.56;2207026;81;21308;-81
2023/01/01 13:05:14;;;;;;;9.15;6.35;;;;;;;14.70;61.20;99215.70;2207519;81;20972;-81
2023/01/01 13:08:14;;;;;;;8.55;6.72;;;;;;;14.68;61.01;99218.76;2207129;81;20975;-82
2023/01/01 13:11:15;;;;;;;9.10;6.85;;;;;;;14.64;60.97;99214.81;2207222;81;20904;-82
2023/01/01 13:14:15;;;;;;;8.75;6.58;;;;;;;14.62;60.71;99221.81;2206991;81;20975;-80
2023/01/01 13:17:15;;;;;;;7.80;5.95;;;;;;;14.62;60.48;99217.88;2207282;81;20972;-81
2023/01/01 13:20:16;;;;;;;9.65;6.28;;;;;;;14.61;60.62;99216.56;2207312;81;20916;-81
2023/01/01 13:23:16;;;;;;;8.13;5.80;;;;;;;14.58;60.74;99220.50;2207369;81;20966;-80
2023/01/01 13:26:17;;;;;;;9.63;6.37;;;;;;;14.52;60.91;99212.17;2207317;81;20924;-80
2023/01/01 13:29:17;;;;;;;10.15;6.35;;;;;;;14.50;61.09;99216.54;2207043;81;20948;-80
2023/01/01 13:32:18;;;;;;;8.48;6.25;;;;;;;14.47;61.11;99211.72;2206822;81;20944;-81
2023/01/01 13:35:18;;;;;;;9.25;6.08;;;;;;;14.42;61.33;99221.30;2207036;81;20974;-80
2023/01/01 13:38:18;;;;;;;11.68;6.42;;;;;;;14.35;61.56;99234.42;2207338;81;20951;-80
2023/01/01 13:41:19;;;;;;;10.28;6.70;;;;;;;14.31;61.71;99241.84;2207310;81;20916;-80
2023/01/01 13:44:19;;;;;;;10.25;6.47;;;;;;;14.26;62.04;99247.96;2245839;79;20967;-80
2023/01/01 13:47:19;;;;;;;10.75;7.08;;;;;;;14.22;62.13;99252.32;2255559;79;20909;-81
2023/01/01 13:50:20;;;;;;;9.33;6.58;;;;;;;14.16;62.37;99259.30;2255571;79;20909;-80
2023/01/01 13:53:20;;;;;;;11.35;6.60;;;;;;;14.08;62.72;99263.20;2255611;79;20960;-79
2023/01/01 13:56:21;;;;;;;10.88;6.50;;;;;;;14.02;63.01;99261.43;2255690;79;20985;-80
2023/01/01 13:59:21;;;;;;;10.38;6.58;;;;;;;13.93;63.17;99254.83;2255422;79;20877;-79
2023/01/01 14:02:22;;;;;;;10.25;7.08;;;;;;;13.86;63.40;99262.63;2255586;79;20941;-79
2023/01/01 14:05:22;;;;;;;11.00;6.40;;;;;;;13.75;63.64;99260.38;2255560;79;21253;-81
2023/01/01 14:08:22;;;;;;;11.55;8.08;;;;;;;13.65;63.88;99266.00;2255361;79;20889;-81
2023/01/01 14:11:23;;;;;;;11.15;7.62;;;;;;;13.54;64.10;99265.06;2255474;79;20877;-81